sensor_id;sensor_type;location;lat;lon;timestamp;pressure;altitude;pressure_sealevel;temperature;humidity
72585;BME280;60618;40.084;32.908;2023-04-25T00:00:58;89309.84;;;8.25;57.34
72585;BME280;60618;40.084;32.908;2023-04-25T00:03:25;89310.63;;;8.11;59.16
72585;BME280;60618;40.084;32.908;2023-04-25T00:05:52;89303.53;;;7.58;59.95
72585;BME280;60618;40.084;32.908;2023-04-25T00:08:19;89305.97;;;7.32;61.31
72585;BME280;60618;40.084;32.908;2023-04-25T00:10:46;89296.09;;;7.33;60.56
72585;BME280;60618;40.084;32.908;2023-04-25T00:13:13;89297.38;;;7.52;60.10
72585;BME280;60618;40.084;32.908;2023-04-25T00:15:40;89299.22;;;7.76;58.87
72585;BME280;60618;40.084;32.908;2023-04-25T00:18:07;89312.19;;;7.88;59.27
72585;BME280;60618;40.084;32.908;2023-04-25T00:20:35;89309.16;;;7.81;59.73
72585;BME280;60618;40.084;32.908;2023-04-25T00:23:02;89306.72;;;7.92;58.53
72585;BME280;60618;40.084;32.908;2023-04-25T00:25:29;89310.09;;;7.92;60.61
72585;BME280;60618;40.084;32.908;2023-04-25T00:27:55;89308.53;;;8.01;58.87
72585;BME280;60618;40.084;32.908;2023-04-25T00:30:22;89298.91;;;8.03;59.44
72585;BME280;60618;40.084;32.908;2023-04-25T00:32:49;89304.84;;;7.98;60.34
72585;BME280;60618;40.084;32.908;2023-04-25T00:35:16;89306.72;;;7.92;60.44
72585;BME280;60618;40.084;32.908;2023-04-25T00:37:43;89304.44;;;7.85;61.28
72585;BME280;60618;40.084;32.908;2023-04-25T00:40:10;89305.25;;;7.61;62.70
72585;BME280;60618;40.084;32.908;2023-04-25T00:42:37;89306.72;;;7.62;62.23
72585;BME280;60618;40.084;32.908;2023-04-25T00:45:05;89297.38;;;7.52;62.44
72585;BME280;60618;40.084;32.908;2023-04-25T00:47:33;89305.09;;;7.65;61.47
72585;BME280;60618;40.084;32.908;2023-04-25T00:50:00;89302.13;;;7.78;59.91
72585;BME280;60618;40.084;32.908;2023-04-25T00:52:26;89301.50;;;7.83;60.40
72585;BME280;60618;40.084;32.908;2023-04-25T00:54:54;89296.09;;;7.77;60.64
72585;BME280;60618;40.084;32.908;2023-04-25T00:57:21;89292.47;;;7.60;62.88
72585;BME280;60618;40.084;32.908;2023-04-25T00:59:50;89299.22;;;7.76;61.15
72585;BME280;60618;40.084;32.908;2023-04-25T01:02:18;89300.94;;;7.93;60.06
72585;BME280;60618;40.084;32.908;2023-04-25T01:04:45;89297.34;;;8.11;60.02
72585;BME280;60618;40.084;32.908;2023-04-25T01:07:12;89301.34;;;8.21;58.99
72585;BME280;60618;40.084;32.908;2023-04-25T01:09:39;89294.28;;;8.33;58.11
72585;BME280;60618;40.084;32.908;2023-04-25T01:12:06;89306.28;;;8.29;58.21
72585;BME280;60618;40.084;32.908;2023-04-25T01:14:33;89299.91;;;8.06;58.91
72585;BME280;60618;40.084;32.908;2023-04-25T01:17:00;89298.19;;;8.03;58.49
72585;BME280;60618;40.084;32.908;2023-04-25T01:19:27;89297.38;;;7.96;59.49
72585;BME280;60618;40.084;32.908;2023-04-25T01:21:54;89298.91;;;8.03;59.17
72585;BME280;60618;40.084;32.908;2023-04-25T01:24:21;89289.88;;;7.95;60.77
72585;BME280;60618;40.084;32.908;2023-04-25T01:26:48;89296.53;;;7.90;60.02
72585;BME280;60618;40.084;32.908;2023-04-25T01:29:19;89283.59;;;7.63;62.88
72585;BME280;60618;40.084;32.908;2023-04-25T01:31:46;89285.91;;;7.55;62.27
72585;BME280;60618;40.084;32.908;2023-04-25T01:34:13;89292.00;;;7.32;62.84
72585;BME280;60618;40.084;32.908;2023-04-25T01:36:40;89283.41;;;7.22;63.44
72585;BME280;60618;40.084;32.908;2023-04-25T01:39:07;89281.66;;;7.34;62.16
72585;BME280;60618;40.084;32.908;2023-04-25T01:41:34;89287.06;;;7.10;64.28
72585;BME280;60618;40.084;32.908;2023-04-25T01:44:01;89286.03;;;6.93;64.26
72585;BME280;60618;40.084;32.908;2023-04-25T01:46:30;89288.00;;;6.83;66.72
72585;BME280;60618;40.084;32.908;2023-04-25T01:48:57;89289.75;;;7.01;64.43
72585;BME280;60618;40.084;32.908;2023-04-25T01:51:24;89289.31;;;7.02;64.52
72585;BME280;60618;40.084;32.908;2023-04-25T01:53:51;89289.81;;;6.92;65.74
72585;BME280;60618;40.084;32.908;2023-04-25T01:56:19;89293.81;;;7.26;63.12
72585;BME280;60618;40.084;32.908;2023-04-25T01:58:46;89292.38;;;6.86;65.16
72585;BME280;60618;40.084;32.908;2023-04-25T02:01:12;89301.44;;;6.94;64.41
72585;BME280;60618;40.084;32.908;2023-04-25T02:03:40;89303.75;;;6.77;65.78
72585;BME280;60618;40.084;32.908;2023-04-25T02:06:07;89299.22;;;6.78;65.72
72585;BME280;60618;40.084;32.908;2023-04-25T02:08:34;89299.94;;;6.78;65.12
72585;BME280;60618;40.084;32.908;2023-04-25T02:11:00;89300.72;;;6.70;67.23
72585;BME280;60618;40.084;32.908;2023-04-25T02:13:27;89289.97;;;6.73;66.20
72585;BME280;60618;40.084;32.908;2023-04-25T02:15:54;89296.38;;;6.81;66.22
72585;BME280;60618;40.084;32.908;2023-04-25T02:18:21;89292.53;;;6.68;66.51
72585;BME280;60618;40.084;32.908;2023-04-25T02:20:48;89298.09;;;6.46;67.25
72585;BME280;60618;40.084;32.908;2023-04-25T02:23:15;89307.06;;;6.15;68.13
72585;BME280;60618;40.084;32.908;2023-04-25T02:25:42;89296.31;;;6.19;67.79
72585;BME280;60618;40.084;32.908;2023-04-25T02:28:09;89298.97;;;6.19;67.72
72585;BME280;60618;40.084;32.908;2023-04-25T02:30:36;89296.44;;;6.24;68.03
72585;BME280;60618;40.084;32.908;2023-04-25T02:33:03;89294.81;;;6.27;67.13
72585;BME280;60618;40.084;32.908;2023-04-25T02:35:30;89287.41;;;6.40;67.03
72585;BME280;60618;40.084;32.908;2023-04-25T02:37:57;89295.38;;;6.55;65.63
72585;BME280;60618;40.084;32.908;2023-04-25T02:40:23;89299.53;;;6.71;65.04
72585;BME280;60618;40.084;32.908;2023-04-25T02:42:50;89292.41;;;6.62;66.76
72585;BME280;60618;40.084;32.908;2023-04-25T02:45:17;89293.75;;;6.58;67.02
72585;BME280;60618;40.084;32.908;2023-04-25T02:47:44;89299.72;;;6.43;67.35
72585;BME280;60618;40.084;32.908;2023-04-25T02:50:11;89296.56;;;6.30;68.31
72585;BME280;60618;40.084;32.908;2023-04-25T02:52:38;89294.94;;;6.33;68.28
72585;BME280;60618;40.084;32.908;2023-04-25T02:55:05;89299.66;;;6.29;68.79
72585;BME280;60618;40.084;32.908;2023-04-25T02:57:32;89302.22;;;6.14;69.95
72585;BME280;60618;40.084;32.908;2023-04-25T02:59:59;89307.56;;;6.05;70.27
72585;BME280;60618;40.084;32.908;2023-04-25T03:02:26;89306.44;;;5.96;71.30
72585;BME280;60618;40.084;32.908;2023-04-25T03:04:53;89312.00;;;5.98;70.71
72585;BME280;60618;40.084;32.908;2023-04-25T03:07:20;89314.50;;;6.02;70.68
72585;BME280;60618;40.084;32.908;2023-04-25T03:09:47;89312.44;;;6.30;68.51
72585;BME280;60618;40.084;32.908;2023-04-25T03:12:14;89311.81;;;6.35;69.15
72585;BME280;60618;40.084;32.908;2023-04-25T03:14:41;89317.19;;;6.50;68.37
72585;BME280;60618;40.084;32.908;2023-04-25T03:17:07;89316.22;;;6.62;67.47
72585;BME280;60618;40.084;32.908;2023-04-25T03:19:34;89314.81;;;6.76;67.15
72585;BME280;60618;40.084;32.908;2023-04-25T03:22:01;89323.41;;;6.86;67.32
72585;BME280;60618;40.084;32.908;2023-04-25T03:24:28;89316.25;;;7.16;66.07
72585;BME280;60618;40.084;32.908;2023-04-25T03:26:55;89323.03;;;7.17;65.86
72585;BME280;60618;40.084;32.908;2023-04-25T03:29:22;89323.88;;;7.23;66.17
72585;BME280;60618;40.084;32.908;2023-04-25T03:31:49;89316.75;;;7.29;66.35
72585;BME280;60618;40.084;32.908;2023-04-25T03:34:15;89323.91;;;7.37;65.62
72585;BME280;60618;40.084;32.908;2023-04-25T03:36:42;89330.06;;;7.20;66.71
72585;BME280;60618;40.084;32.908;2023-04-25T03:39:09;89328.81;;;6.91;67.38
72585;BME280;60618;40.084;32.908;2023-04-25T03:41:36;89331.56;;;6.97;67.28
72585;BME280;60618;40.084;32.908;2023-04-25T03:44:03;89331.56;;;6.97;68.08
72585;BME280;60618;40.084;32.908;2023-04-25T03:46:30;89330.50;;;7.03;67.95
72585;BME280;60618;40.084;32.908;2023-04-25T03:48:57;89330.50;;;7.03;68.13
72585;BME280;60618;40.084;32.908;2023-04-25T03:51:25;89338.00;;;6.81;69.28
72585;BME280;60618;40.084;32.908;2023-04-25T03:53:52;89338.56;;;6.85;69.42
72585;BME280;60618;40.084;32.908;2023-04-25T03:56:19;89331.75;;;6.93;69.41
72585;BME280;60618;40.084;32.908;2023-04-25T03:58:46;89334.59;;;7.04;69.24
72585;BME280;60618;40.084;32.908;2023-04-25T04:01:13;89334.59;;;7.04;70.33
72585;BME280;60618;40.084;32.908;2023-04-25T04:03:40;89332.34;;;6.88;71.57
72585;BME280;60618;40.084;32.908;2023-04-25T04:06:07;89328.59;;;6.80;71.33
72585;BME280;60618;40.084;32.908;2023-04-25T04:08:35;89333.72;;;6.83;71.42
72585;BME280;60618;40.084;32.908;2023-04-25T04:11:01;89327.47;;;6.96;69.16
72585;BME280;60618;40.084;32.908;2023-04-25T04:13:29;89323.88;;;7.23;69.67
72585;BME280;60618;40.084;32.908;2023-04-25T04:15:56;89323.72;;;7.71;68.62
72585;BME280;60618;40.084;32.908;2023-04-25T04:18:23;89322.00;;;8.17;67.36
72585;BME280;60618;40.084;32.908;2023-04-25T04:20:50;89327.31;;;8.67;65.84
72585;BME280;60618;40.084;32.908;2023-04-25T04:23:17;89320.63;;;9.13;64.61
72585;BME280;60618;40.084;32.908;2023-04-25T04:25:44;89321.31;;;9.54;64.60
72585;BME280;60618;40.084;32.908;2023-04-25T04:28:11;89320.69;;;9.90;62.25
72585;BME280;60618;40.084;32.908;2023-04-25T04:30:37;89324.78;;;9.91;61.19
72585;BME280;60618;40.084;32.908;2023-04-25T04:33:04;89322.81;;;9.60;62.56
72585;BME280;60618;40.084;32.908;2023-04-25T04:35:31;89320.72;;;9.70;62.69
72585;BME280;60618;40.084;32.908;2023-04-25T04:37:58;89326.50;;;9.94;61.35
72585;BME280;60618;40.084;32.908;2023-04-25T04:40:25;89325.56;;;9.98;61.38
72585;BME280;60618;40.084;32.908;2023-04-25T04:42:52;89325.03;;;9.93;61.45
72585;BME280;60618;40.084;32.908;2023-04-25T04:45:19;89328.06;;;10.07;61.13
72585;BME280;60618;40.084;32.908;2023-04-25T04:47:46;89325.97;;;10.48;59.84
72585;BME280;60618;40.084;32.908;2023-04-25T04:50:13;89324.31;;;11.04;58.45
72585;BME280;60618;40.084;32.908;2023-04-25T04:52:40;89321.81;;;11.44;57.46
72585;BME280;60618;40.084;32.908;2023-04-25T04:55:07;89327.19;;;11.60;56.37
72585;BME280;60618;40.084;32.908;2023-04-25T04:57:35;89318.44;;;11.54;56.72
72585;BME280;60618;40.084;32.908;2023-04-25T05:00:02;89316.94;;;11.36;57.50
72585;BME280;60618;40.084;32.908;2023-04-25T05:02:29;89314.25;;;11.31;57.46
72585;BME280;60618;40.084;32.908;2023-04-25T05:04:56;89317.63;;;11.20;57.80
72585;BME280;60618;40.084;32.908;2023-04-25T05:07:23;89321.56;;;10.82;58.45
72585;BME280;60618;40.084;32.908;2023-04-25T05:09:50;89321.84;;;10.90;59.35
72585;BME280;60618;40.084;32.908;2023-04-25T05:12:17;89318.88;;;11.36;58.61
72585;BME280;60618;40.084;32.908;2023-04-25T05:14:44;89316.78;;;11.74;57.24
72585;BME280;60618;40.084;32.908;2023-04-25T05:17:11;89321.72;;;12.14;55.55
72585;BME280;60618;40.084;32.908;2023-04-25T05:19:39;89316.56;;;11.77;56.89
72585;BME280;60618;40.084;32.908;2023-04-25T05:22:05;89317.69;;;11.48;57.42
72585;BME280;60618;40.084;32.908;2023-04-25T05:24:32;89324.03;;;11.68;57.43
72585;BME280;60618;40.084;32.908;2023-04-25T05:26:59;89315.66;;;12.14;56.47
72585;BME280;60618;40.084;32.908;2023-04-25T05:29:26;89317.09;;;12.48;55.26
72585;BME280;60618;40.084;32.908;2023-04-25T05:31:53;89313.69;;;12.54;56.13
72585;BME280;60618;40.084;32.908;2023-04-25T05:34:20;89319.75;;;12.65;55.43
72585;BME280;60618;40.084;32.908;2023-04-25T05:36:47;89313.19;;;12.66;55.43
72585;BME280;60618;40.084;32.908;2023-04-25T05:39:15;89312.19;;;12.75;55.53
72585;BME280;60618;40.084;32.908;2023-04-25T05:41:43;89314.66;;;12.62;55.09
72585;BME280;60618;40.084;32.908;2023-04-25T05:44:09;89310.56;;;12.33;56.69
72585;BME280;60618;40.084;32.908;2023-04-25T05:46:36;89302.28;;;12.31;57.24
72585;BME280;60618;40.084;32.908;2023-04-25T05:49:04;89309.13;;;12.32;54.94
72585;BME280;60618;40.084;32.908;2023-04-25T05:51:31;89310.31;;;12.53;54.70
72585;BME280;60618;40.084;32.908;2023-04-25T05:53:58;89310.28;;;12.47;55.38
72585;BME280;60618;40.084;32.908;2023-04-25T05:56:25;89305.47;;;12.24;55.92
72585;BME280;60618;40.084;32.908;2023-04-25T05:58:52;89313.69;;;11.86;57.65
72585;BME280;60618;40.084;32.908;2023-04-25T06:01:18;89312.22;;;11.80;56.30
72585;BME280;60618;40.084;32.908;2023-04-25T06:03:45;89306.44;;;12.09;58.49
72585;BME280;60618;40.084;32.908;2023-04-25T06:06:13;89306.19;;;12.41;58.19
72585;BME280;60618;40.084;32.908;2023-04-25T06:08:41;89307.56;;;12.87;54.36
72585;BME280;60618;40.084;32.908;2023-04-25T06:11:08;89316.47;;;13.17;53.68
72585;BME280;60618;40.084;32.908;2023-04-25T06:13:34;89315.22;;;13.35;52.58
72585;BME280;60618;40.084;32.908;2023-04-25T06:16:01;89311.97;;;13.59;51.52
72585;BME280;60618;40.084;32.908;2023-04-25T06:18:28;89305.72;;;13.86;50.13
72585;BME280;60618;40.084;32.908;2023-04-25T06:20:55;89311.19;;;14.11;50.78
72585;BME280;60618;40.084;32.908;2023-04-25T06:23:22;89313.59;;;14.14;52.14
72585;BME280;60618;40.084;32.908;2023-04-25T06:25:49;89313.47;;;13.96;51.34
72585;BME280;60618;40.084;32.908;2023-04-25T06:28:16;89317.09;;;13.98;51.12
72585;BME280;60618;40.084;32.908;2023-04-25T06:30:43;89309.47;;;14.43;50.74
72585;BME280;60618;40.084;32.908;2023-04-25T06:33:10;89309.44;;;14.79;48.80
72585;BME280;60618;40.084;32.908;2023-04-25T06:35:37;89313.59;;;14.14;48.57
72585;BME280;60618;40.084;32.908;2023-04-25T06:38:04;89309.88;;;14.23;48.91
72585;BME280;60618;40.084;32.908;2023-04-25T06:40:31;89308.63;;;13.88;51.21
72585;BME280;60618;40.084;32.908;2023-04-25T06:42:57;89313.72;;;13.45;51.12
72585;BME280;60618;40.084;32.908;2023-04-25T06:45:24;89308.19;;;13.84;50.58
72585;BME280;60618;40.084;32.908;2023-04-25T06:47:51;89306.84;;;14.02;52.88
72585;BME280;60618;40.084;32.908;2023-04-25T06:50:18;89302.16;;;13.73;48.85
72585;BME280;60618;40.084;32.908;2023-04-25T06:52:45;89305.00;;;13.86;48.15
72585;BME280;60618;40.084;32.908;2023-04-25T06:55:12;89297.16;;;13.94;46.72
72585;BME280;60618;40.084;32.908;2023-04-25T06:57:39;89303.91;;;14.06;44.71
72585;BME280;60618;40.084;32.908;2023-04-25T07:00:06;89303.25;;;13.94;44.75
72585;BME280;60618;40.084;32.908;2023-04-25T07:02:33;89300.19;;;14.14;44.64
72585;BME280;60618;40.084;32.908;2023-04-25T07:05:01;89298.50;;;14.11;43.67
72585;BME280;60618;40.084;32.908;2023-04-25T07:07:28;89299.13;;;14.59;45.11
72585;BME280;60618;40.084;32.908;2023-04-25T07:09:55;89299.03;;;14.70;43.50
72585;BME280;60618;40.084;32.908;2023-04-25T07:12:22;89298.81;;;14.68;43.09
72585;BME280;60618;40.084;32.908;2023-04-25T07:14:49;89297.44;;;14.86;42.94
72585;BME280;60618;40.084;32.908;2023-04-25T07:17:16;89307.66;;;14.87;43.01
72585;BME280;60618;40.084;32.908;2023-04-25T07:19:43;89300.97;;;15.18;44.00
72585;BME280;60618;40.084;32.908;2023-04-25T07:22:10;89306.81;;;14.98;42.11
72585;BME280;60618;40.084;32.908;2023-04-25T07:24:37;89295.84;;;14.96;43.45
72585;BME280;60618;40.084;32.908;2023-04-25T07:27:05;89290.75;;;15.17;42.75
72585;BME280;60618;40.084;32.908;2023-04-25T07:29:32;89287.50;;;15.24;40.25
72585;BME280;60618;40.084;32.908;2023-04-25T07:31:59;89289.41;;;15.29;42.46
72585;BME280;60618;40.084;32.908;2023-04-25T07:34:26;89282.16;;;15.24;42.98
72585;BME280;60618;40.084;32.908;2023-04-25T07:36:53;89285.72;;;15.08;40.29
72585;BME280;60618;40.084;32.908;2023-04-25T07:39:20;89284.47;;;15.33;41.86
72585;BME280;60618;40.084;32.908;2023-04-25T07:41:47;89283.75;;;15.32;39.62
72585;BME280;60618;40.084;32.908;2023-04-25T07:44:13;89279.66;;;15.07;40.92
72585;BME280;60618;40.084;32.908;2023-04-25T07:46:40;89274.00;;;15.11;41.50
72585;BME280;60618;40.084;32.908;2023-04-25T07:49:07;89274.31;;;15.26;40.68
72585;BME280;60618;40.084;32.908;2023-04-25T07:51:34;89276.13;;;15.37;40.83
72585;BME280;60618;40.084;32.908;2023-04-25T07:54:01;89274.75;;;15.11;39.55
72585;BME280;60618;40.084;32.908;2023-04-25T07:56:28;89278.56;;;15.16;39.12
72585;BME280;60618;40.084;32.908;2023-04-25T07:59:10;89270.09;;;14.87;38.36
72585;BME280;60618;40.084;32.908;2023-04-25T08:01:37;89276.16;;;14.93;37.50
72585;BME280;60618;40.084;32.908;2023-04-25T08:04:04;89278.25;;;15.00;37.95
72585;BME280;60618;40.084;32.908;2023-04-25T08:06:31;89276.41;;;14.90;37.73
72585;BME280;60618;40.084;32.908;2023-04-25T08:08:59;89279.16;;;14.84;36.95
72585;BME280;60618;40.084;32.908;2023-04-25T08:11:25;89277.06;;;14.47;38.27
72585;BME280;60618;40.084;32.908;2023-04-25T08:13:52;89280.09;;;14.32;41.34
72585;BME280;60618;40.084;32.908;2023-04-25T08:16:19;89273.03;;;14.65;40.02
72585;BME280;60618;40.084;32.908;2023-04-25T08:18:46;89271.00;;;15.20;38.25
72585;BME280;60618;40.084;32.908;2023-04-25T08:21:13;89269.56;;;15.56;35.90
72585;BME280;60618;40.084;32.908;2023-04-25T08:23:40;89265.97;;;15.73;37.14
72585;BME280;60618;40.084;32.908;2023-04-25T08:26:07;89260.97;;;16.14;36.44
72585;BME280;60618;40.084;32.908;2023-04-25T08:28:34;89260.38;;;16.67;35.81
72585;BME280;60618;40.084;32.908;2023-04-25T08:31:01;89265.31;;;16.82;34.52
72585;BME280;60618;40.084;32.908;2023-04-25T08:33:28;89262.41;;;17.33;35.07
72585;BME280;60618;40.084;32.908;2023-04-25T08:35:54;89262.69;;;17.55;34.19
72585;BME280;60618;40.084;32.908;2023-04-25T08:38:21;89258.44;;;17.60;33.90
72585;BME280;60618;40.084;32.908;2023-04-25T08:40:51;89251.63;;;16.80;34.44
72585;BME280;60618;40.084;32.908;2023-04-25T08:43:19;89260.13;;;16.97;34.94
72585;BME280;60618;40.084;32.908;2023-04-25T08:45:46;89262.50;;;17.40;35.28
72585;BME280;60618;40.084;32.908;2023-04-25T08:48:15;89259.91;;;17.48;36.51
72585;BME280;60618;40.084;32.908;2023-04-25T08:50:50;89263.38;;;16.63;36.83
72585;BME280;60618;40.084;32.908;2023-04-25T08:53:30;89245.97;;;16.83;36.75
72585;BME280;60618;40.084;32.908;2023-04-25T08:55:59;89251.28;;;16.57;38.84
72585;BME280;60618;40.084;32.908;2023-04-25T08:58:27;89240.88;;;16.34;35.94
72585;BME280;60618;40.084;32.908;2023-04-25T09:00:54;89239.03;;;16.74;35.61
72585;BME280;60618;40.084;32.908;2023-04-25T09:03:21;89249.78;;;16.88;35.30
72585;BME280;60618;40.084;32.908;2023-04-25T09:05:49;89243.00;;;16.55;34.42
72585;BME280;60618;40.084;32.908;2023-04-25T09:08:16;89240.56;;;16.83;34.48
72585;BME280;60618;40.084;32.908;2023-04-25T09:10:43;89241.50;;;16.72;35.45
72585;BME280;60618;40.084;32.908;2023-04-25T09:13:13;89239.84;;;16.96;33.43
72585;BME280;60618;40.084;32.908;2023-04-25T09:15:57;89239.34;;;16.39;35.94
72585;BME280;60618;40.084;32.908;2023-04-25T09:18:28;89235.19;;;15.74;36.31
72585;BME280;60618;40.084;32.908;2023-04-25T09:21:05;89222.97;;;15.16;36.30
72585;BME280;60618;40.084;32.908;2023-04-25T09:23:48;89223.59;;;15.66;36.89
72585;BME280;60618;40.084;32.908;2023-04-25T09:26:17;89234.59;;;15.81;35.41
72585;BME280;60618;40.084;32.908;2023-04-25T09:28:44;89224.22;;;16.23;36.15
72585;BME280;60618;40.084;32.908;2023-04-25T09:31:12;89222.63;;;16.46;34.92
72585;BME280;60618;40.084;32.908;2023-04-25T09:33:47;89230.75;;;16.86;35.62
72585;BME280;60618;40.084;32.908;2023-04-25T09:36:16;89215.84;;;15.94;35.31
72585;BME280;60618;40.084;32.908;2023-04-25T09:38:44;89219.88;;;16.33;37.94
72585;BME280;60618;40.084;32.908;2023-04-25T09:41:12;89217.38;;;16.80;36.09
72585;BME280;60618;40.084;32.908;2023-04-25T09:43:39;89216.88;;;16.68;35.59
72585;BME280;60618;40.084;32.908;2023-04-25T09:46:10;89215.53;;;17.01;37.00
72585;BME280;60618;40.084;32.908;2023-04-25T09:48:38;89206.47;;;16.46;34.80
72585;BME280;60618;40.084;32.908;2023-04-25T09:51:09;89200.47;;;16.40;34.73
72585;BME280;60618;40.084;32.908;2023-04-25T09:53:38;89204.63;;;16.54;35.59
72585;BME280;60618;40.084;32.908;2023-04-25T09:56:08;89200.53;;;16.21;34.30
72585;BME280;60618;40.084;32.908;2023-04-25T09:58:36;89196.72;;;16.30;34.86
72585;BME280;60618;40.084;32.908;2023-04-25T10:01:05;89196.25;;;16.58;34.33
72585;BME280;60618;40.084;32.908;2023-04-25T10:03:36;89191.84;;;16.87;34.81
72585;BME280;60618;40.084;32.908;2023-04-25T10:06:09;89197.56;;;16.38;35.16
72585;BME280;60618;40.084;32.908;2023-04-25T10:08:38;89200.47;;;15.95;35.07
72585;BME280;60618;40.084;32.908;2023-04-25T10:11:07;89197.31;;;15.77;34.92
72585;BME280;60618;40.084;32.908;2023-04-25T10:13:35;89196.44;;;15.69;35.46
72585;BME280;60618;40.084;32.908;2023-04-25T10:22:46;89187.28;;;16.95;35.89
72585;BME280;60618;40.084;32.908;2023-04-25T10:25:14;89173.84;;;17.08;34.81
72585;BME280;60618;40.084;32.908;2023-04-25T10:27:41;89185.94;;;17.01;37.24
72585;BME280;60618;40.084;32.908;2023-04-25T10:30:14;89186.25;;;16.98;35.14
72585;BME280;60618;40.084;32.908;2023-04-25T10:32:42;89185.66;;;16.92;36.28
72585;BME280;60618;40.084;32.908;2023-04-25T10:38:11;89167.41;;;17.11;36.43
72585;BME280;60618;40.084;32.908;2023-04-25T10:40:40;89169.19;;;17.43;35.14
72585;BME280;60618;40.084;32.908;2023-04-25T10:45:56;89160.19;;;16.80;36.74
72585;BME280;60618;40.084;32.908;2023-04-25T10:48:29;89161.63;;;16.54;36.25
72585;BME280;60618;40.084;32.908;2023-04-25T10:51:16;89161.84;;;17.43;35.45
72585;BME280;60618;40.084;32.908;2023-04-25T10:59:07;89154.72;;;18.99;33.49
72585;BME280;60618;40.084;32.908;2023-04-25T11:01:39;89141.97;;;19.51;33.02
72585;BME280;60618;40.084;32.908;2023-04-25T11:04:23;89145.00;;;18.96;33.09
72585;BME280;60618;40.084;32.908;2023-04-25T11:09:33;89151.34;;;17.87;33.93
72585;BME280;60618;40.084;32.908;2023-04-25T11:12:01;89147.41;;;17.88;35.04
72585;BME280;60618;40.084;32.908;2023-04-25T11:14:27;89144.66;;;16.59;36.05
72585;BME280;60618;40.084;32.908;2023-04-25T11:16:55;89130.06;;;16.41;38.55
72585;BME280;60618;40.084;32.908;2023-04-25T11:19:26;89137.94;;;16.39;37.38
72585;BME280;60618;40.084;32.908;2023-04-25T11:21:58;89129.34;;;16.94;36.18
72585;BME280;60618;40.084;32.908;2023-04-25T11:24:30;89138.38;;;17.30;36.36
72585;BME280;60618;40.084;32.908;2023-04-25T11:26:58;89125.03;;;17.59;35.36
72585;BME280;60618;40.084;32.908;2023-04-25T11:29:33;89115.75;;;17.81;35.30
72585;BME280;60618;40.084;32.908;2023-04-25T11:32:01;89123.97;;;18.17;34.87
72585;BME280;60618;40.084;32.908;2023-04-25T11:34:30;89118.63;;;18.04;35.26
72585;BME280;60618;40.084;32.908;2023-04-25T11:36:58;89116.75;;;16.76;36.83
72585;BME280;60618;40.084;32.908;2023-04-25T11:39:26;89118.63;;;17.15;36.71
72585;BME280;60618;40.084;32.908;2023-04-25T11:41:54;89119.50;;;17.99;35.95
72585;BME280;60618;40.084;32.908;2023-04-25T11:44:21;89119.00;;;18.86;34.87
72585;BME280;60618;40.084;32.908;2023-04-25T11:46:49;89122.28;;;18.35;34.94
72585;BME280;60618;40.084;32.908;2023-04-25T11:49:16;89114.72;;;18.90;33.14
72585;BME280;60618;40.084;32.908;2023-04-25T11:51:44;89101.66;;;19.10;32.05
72585;BME280;60618;40.084;32.908;2023-04-25T11:54:12;89101.25;;;19.42;32.11
72585;BME280;60618;40.084;32.908;2023-04-25T11:56:45;89097.22;;;19.79;31.05
72585;BME280;60618;40.084;32.908;2023-04-25T11:59:13;89090.97;;;19.40;29.04
72585;BME280;60618;40.084;32.908;2023-04-25T12:01:41;89095.72;;;17.90;33.37
72585;BME280;60618;40.084;32.908;2023-04-25T12:04:24;89089.75;;;18.12;31.98
72585;BME280;60618;40.084;32.908;2023-04-25T12:06:53;89086.72;;;18.65;30.71
72585;BME280;60618;40.084;32.908;2023-04-25T12:09:28;89083.84;;;17.51;31.58
72585;BME280;60618;40.084;32.908;2023-04-25T12:11:56;89088.81;;;16.79;32.16
72585;BME280;60618;40.084;32.908;2023-04-25T12:14:28;89083.44;;;16.52;34.93
72585;BME280;60618;40.084;32.908;2023-04-25T12:16:57;89075.38;;;16.79;33.23
72585;BME280;60618;40.084;32.908;2023-04-25T12:19:25;89078.41;;;17.09;35.26
72585;BME280;60618;40.084;32.908;2023-04-25T12:21:52;89076.19;;;17.76;32.41
72585;BME280;60618;40.084;32.908;2023-04-25T12:24:26;89057.91;;;17.61;32.17
72585;BME280;60618;40.084;32.908;2023-04-25T12:27:02;89053.69;;;17.31;32.31
72585;BME280;60618;40.084;32.908;2023-04-25T12:29:31;89060.22;;;17.57;32.05
72585;BME280;60618;40.084;32.908;2023-04-25T12:32:14;89065.84;;;17.46;32.01
72585;BME280;60618;40.084;32.908;2023-04-25T12:34:41;89064.16;;;17.56;31.54
72585;BME280;60618;40.084;32.908;2023-04-25T12:37:08;89057.97;;;17.48;31.26
72585;BME280;60618;40.084;32.908;2023-04-25T12:39:36;89046.78;;;17.23;30.98
72585;BME280;60618;40.084;32.908;2023-04-25T12:42:03;89044.16;;;17.30;32.65
72585;BME280;60618;40.084;32.908;2023-04-25T12:44:33;89035.81;;;17.21;30.54
72585;BME280;60618;40.084;32.908;2023-04-25T12:47:00;89049.72;;;17.12;33.37
72585;BME280;60618;40.084;32.908;2023-04-25T12:49:28;89039.44;;;16.89;32.05
72585;BME280;60618;40.084;32.908;2023-04-25T12:51:54;89039.59;;;16.70;31.03
72585;BME280;60618;40.084;32.908;2023-04-25T12:54:22;89035.63;;;16.85;33.69
72585;BME280;60618;40.084;32.908;2023-04-25T12:56:48;89036.22;;;17.25;32.72
72585;BME280;60618;40.084;32.908;2023-04-25T12:59:15;89030.31;;;17.68;32.37
72585;BME280;60618;40.084;32.908;2023-04-25T13:01:42;89018.91;;;17.75;31.02
72585;BME280;60618;40.084;32.908;2023-04-25T13:04:10;89023.41;;;17.59;31.37
72585;BME280;60618;40.084;32.908;2023-04-25T13:06:37;89023.81;;;17.22;29.33
72585;BME280;60618;40.084;32.908;2023-04-25T13:09:04;89025.31;;;17.10;30.10
72585;BME280;60618;40.084;32.908;2023-04-25T13:11:31;89020.94;;;17.20;29.59
72585;BME280;60618;40.084;32.908;2023-04-25T13:13:58;89027.75;;;17.21;29.27
72585;BME280;60618;40.084;32.908;2023-04-25T13:16:24;89016.91;;;17.13;28.31